Flight Track Log - Related Links

Times and Time Zones

All times are in EST time to prevent confusion due to time zone crossing. See the UPS238 flight status page for this flight to view local times or setup timezone preferences in your user account.


Time Position Orientation Groundspeed Altitude Reporting Facility
EST Latitude Longitude Course Direction KTS MPH feet Rate Location/Type
Thu 05:51:00 PM 61.3074 -19.0229 301° West  Level FlightAware Approximate
Thu 05:52:00 PM 61.3552 -19.2581 293° West  Level FlightAware Approximate
Thu 05:53:00 PM 61.4026 -19.4940 293° West  Level FlightAware Approximate
Thu 05:54:00 PM 61.4496 -19.7306 293° West  Level FlightAware Approximate
Thu 05:55:00 PM 61.4962 -19.9679 292° West  Level FlightAware Approximate
Thu 05:56:00 PM 61.5424 -20.2060 292° West  Level FlightAware Approximate
Thu 05:57:00 PM 61.5882 -20.4447 292° West  Level FlightAware Approximate
Thu 05:58:00 PM 61.6335 -20.6841 292° West  Level FlightAware Approximate
Thu 05:59:00 PM 61.6784 -20.9243 292° West  Level FlightAware Approximate
Thu 06:00:00 PM 61.7229 -21.1651 291° West  Level FlightAware Approximate
Thu 06:01:00 PM 61.7670 -21.4066 291° West  Level FlightAware Approximate
Thu 06:02:00 PM 61.8107 -21.6488 291° West  Level FlightAware Approximate
Thu 06:03:00 PM 61.8539 -21.8918 291° West  Level FlightAware Approximate
Thu 06:04:00 PM 61.8967 -22.1353 291° West  Level FlightAware Approximate
Thu 06:05:00 PM 61.9391 -22.3796 290° West  Level FlightAware Approximate
Thu 06:06:00 PM 61.9810 -22.6245 290° West  Level FlightAware Approximate
Thu 06:07:00 PM 62.0225 -22.8701 290° West  Level FlightAware Approximate
Thu 06:08:00 PM 62.0636 -23.1164 290° West  Level FlightAware Approximate
Thu 06:09:00 PM 62.1042 -23.3634 289° West  Level FlightAware Approximate
Thu 06:10:00 PM 62.1444 -23.6110 289° West  Level FlightAware Approximate
Thu 06:11:00 PM 62.1841 -23.8592 289° West  Level FlightAware Approximate
Thu 06:12:00 PM 62.2234 -24.1081 289° West  Level FlightAware Approximate
Thu 06:13:00 PM 62.2622 -24.3577 289° West  Level FlightAware Approximate
Thu 06:14:00 PM 62.3006 -24.6078 288° West  Level FlightAware Approximate
Thu 06:15:00 PM 62.3386 -24.8587 288° West  Level FlightAware Approximate
Thu 06:16:00 PM 62.3761 -25.1101 288° West  Level FlightAware Approximate
Thu 06:17:00 PM 62.4131 -25.3622 288° West  Level FlightAware Approximate
Thu 06:18:00 PM 62.4497 -25.6149 287° West  Level FlightAware Approximate
Thu 06:19:00 PM 62.4858 -25.8682 287° West  Level FlightAware Approximate
Thu 06:20:00 PM 62.5215 -26.1222 287° West  Level FlightAware Approximate
Thu 06:21:00 PM 62.5567 -26.3767 287° West  Level FlightAware Approximate
Thu 06:22:00 PM 62.5914 -26.6318 287° West  Level FlightAware Approximate
Thu 06:23:00 PM 62.6257 -26.8875 286° West  Level FlightAware Approximate
Thu 06:24:00 PM 62.6595 -27.1439 286° West  Level FlightAware Approximate
Thu 06:25:00 PM 62.6928 -27.4007 286° West  Level FlightAware Approximate
Thu 06:26:00 PM 62.7257 -27.6582 286° West  Level FlightAware Approximate
Thu 06:27:00 PM 62.7581 -27.9163 285° West  Level FlightAware Approximate
Thu 06:28:00 PM 62.7900 -28.1749 285° West  Level FlightAware Approximate
Thu 06:29:00 PM 62.8214 -28.4340 285° West  Level FlightAware Approximate
Thu 06:30:00 PM 62.8524 -28.6937 285° West  Level FlightAware Approximate
Thu 06:31:00 PM 62.8829 -28.9540 285° West  Level FlightAware Approximate
Thu 06:32:00 PM 62.9129 -29.2148 284° West  Level FlightAware Approximate
Thu 06:33:00 PM 62.9424 -29.4761 284° West  Level FlightAware Approximate
Thu 06:34:00 PM 62.9715 -29.7379 284° West  Level FlightAware Approximate
Thu 06:35:00 PM 63.0000 -30.0003 274° West  Level FlightAware Approximate
Thu 06:36:00 PM 63.0091 -30.2695 274° West  Level FlightAware Approximate
Thu 06:37:00 PM 63.0177 -30.5389 274° West  Level FlightAware Approximate
Thu 06:38:00 PM 63.0257 -30.8084 274° West  Level FlightAware Approximate
Thu 06:39:00 PM 63.0332 -31.0781 274° West  Level FlightAware Approximate
Thu 06:40:00 PM 63.0403 -31.3479 273° West  Level FlightAware Approximate
Thu 06:41:00 PM 63.0468 -31.6179 273° West  Level FlightAware Approximate
Thu 06:42:00 PM 63.0528 -31.8879 273° West  Level FlightAware Approximate
Thu 06:43:00 PM 63.0583 -32.1581 273° West  Level FlightAware Approximate
Thu 06:44:00 PM 63.0632 -32.4284 272° West  Level FlightAware Approximate
Thu 06:45:00 PM 63.0677 -32.6987 272° West  Level FlightAware Approximate
Thu 06:46:00 PM 63.0716 -32.9691 272° West  Level FlightAware Approximate
Thu 06:47:00 PM 63.0751 -33.2396 272° West  Level FlightAware Approximate
Thu 06:48:00 PM 63.0780 -33.5102 271° West  Level FlightAware Approximate
Thu 06:49:00 PM 63.0803 -33.7808 271° West  Level FlightAware Approximate
Thu 06:50:00 PM 63.0822 -34.0514 271° West  Level FlightAware Approximate
Thu 06:51:00 PM 63.0836 -34.3221 271° West  Level FlightAware Approximate
Thu 06:52:00 PM 63.0844 -34.5928 271° West  Level FlightAware Approximate
Thu 06:53:00 PM 63.0848 -34.8635 270° West  Level FlightAware Approximate
Thu 06:54:00 PM 63.0846 -35.1342 270° West  Level FlightAware Approximate
Thu 06:55:00 PM 63.0839 -35.4049 270° West  Level FlightAware Approximate
Thu 06:56:00 PM 63.0826 -35.6756 270° West  Level FlightAware Approximate
Thu 06:57:00 PM 63.0809 -35.9462 269° West  Level FlightAware Approximate
Thu 06:58:00 PM 63.0787 -36.2168 269° West  Level FlightAware Approximate
Thu 06:59:00 PM 63.0759 -36.4874 269° West  Level FlightAware Approximate
Thu 07:00:00 PM 63.0726 -36.7579 269° West  Level FlightAware Approximate
Thu 07:01:00 PM 63.0688 -37.0283 268° West  Level FlightAware Approximate
Thu 07:02:00 PM 63.0648 -37.2988 268° West  Level FlightAware Approximate
Thu 07:03:00 PM 63.0607 -37.5691 268° West  Level FlightAware Approximate
Thu 07:04:00 PM 63.0560 -37.8394 268° West  Level FlightAware Approximate
Thu 07:05:00 PM 63.0508 -38.1095 268° West  Level FlightAware Approximate
Thu 07:06:00 PM 63.0451 -38.3796 267° West  Level FlightAware Approximate
Thu 07:07:00 PM 63.0389 -38.6496 267° West  Level FlightAware Approximate
Thu 07:08:00 PM 63.0322 -38.9194 267° West  Level FlightAware Approximate
Thu 07:09:00 PM 63.0249 -39.1891 267° West  Level FlightAware Approximate
Thu 07:10:00 PM 63.0171 -39.4587 266° West  Level FlightAware Approximate
Thu 07:10:49 PM 62.7833 -42.9667 261° West 460 529 32,000  Level Gander Center
Thu 07:11:00 PM 63.0089 -39.7281 266° West  Level FlightAware Approximate
Thu 07:11:49 PM 62.7667 -43.2333 262° West 460 529 32,000  Level Gander Center
Thu 07:12:00 PM 63.0001 -39.9974 266° West  Level FlightAware Approximate
Thu 07:12:49 PM 62.7500 -43.5000 262° West 450 518 32,000  Level Gander Center
Thu 07:13:00 PM 62.9831 -40.2646 262° West  Level FlightAware Approximate
Thu 07:13:49 PM 62.7333 -43.7833 263° West 450 518 32,000  Level Gander Center
Thu 07:14:00 PM 62.9655 -40.5315 262° West  Level FlightAware Approximate
Thu 07:14:49 PM 62.7167 -44.0500 262° West 460 529 32,000  Level Gander Center
Thu 07:15:00 PM 62.9474 -40.7980 262° West  Level FlightAware Approximate
Thu 07:15:49 PM 62.7000 -44.3167 262° West 460 529 32,000  Level Gander Center
Thu 07:16:00 PM 62.9288 -41.0643 261° West  Level FlightAware Approximate
Thu 07:17:49 PM 62.6500 -44.8500 255° West 460 529 32,000  Level Gander Center
Thu 07:18:49 PM 62.6333 -45.1167 262° West 450 518 32,000  Level Gander Center
Thu 07:19:49 PM 62.5833 -45.3667 247° West 450 518 32,000  Level Gander Center
Thu 07:20:49 PM 62.5333 -45.6167 247° West 450 518 32,000  Level Gander Center
Thu 07:21:49 PM 62.5000 -45.8500 253° West 450 518 32,000  Level Gander Center
Thu 07:22:49 PM 62.4667 -46.1333 256° West 450 518 32,000  Level Gander Center
Thu 07:23:49 PM 62.4500 -46.3500 261° West 450 518 32,000  Level Gander Center
Thu 07:24:49 PM 62.4167 -46.6667 257° West 450 518 32,000  Level Gander Center
Thu 07:25:49 PM 62.3833 -46.9000 253° West 450 518 32,000  Level Gander Center
Thu 07:26:49 PM 62.3667 -47.1667 262° West 440 506 32,000  Level Gander Center
Thu 07:27:49 PM 62.3333 -47.4000 253° West 440 506 32,000  Level Gander Center
Thu 07:28:49 PM 62.3000 -47.6667 255° West 440 506 32,000  Level Gander Center
Thu 07:29:49 PM 62.2667 -47.9000 253° West 440 506 32,000  Level Gander Center
Thu 07:30:49 PM 62.2333 -48.1667 255° West 440 506 32,000  Level Gander Center
Thu 07:31:49 PM 62.2000 -48.3833 252° West 440 506 32,000  Level Gander Center
Thu 07:32:49 PM 62.1833 -48.6500 262° West 440 506 32,000  Level Gander Center
Thu 07:33:49 PM 62.1500 -48.9167 255° West 440 506 32,000  Level Gander Center
Thu 07:34:49 PM 62.1167 -49.1500 253° West 440 506 32,000  Level Gander Center
Thu 07:35:49 PM 62.0833 -49.4000 254° West 440 506 32,000  Level Gander Center
Thu 07:36:49 PM 62.0500 -49.6667 255° West 440 506 32,000  Level Gander Center
Thu 07:37:49 PM 62.0167 -49.9000 253° West 440 506 32,000  Level Gander Center
Thu 07:39:38 PM 61.9167 -50.3333 244° Southwest 430 495 32,000  Level Gander Center
Thu 07:40:38 PM 61.8667 -50.5500 244° Southwest 430 495 32,000  Level Gander Center
Thu 07:41:38 PM 61.8167 -50.7500 242° Southwest 430 495 32,000  Level Gander Center
Thu 07:42:38 PM 61.7500 -50.9833 239° Southwest 430 495 32,000  Level Gander Center
Thu 07:43:38 PM 61.6833 -51.2167 239° Southwest 430 495 32,000  Level Gander Center
Thu 07:44:38 PM 61.6333 -51.4333 244° Southwest 430 495 32,000  Level Gander Center
Thu 07:45:38 PM 61.5833 -51.6667 246° West 430 495 32,000  Level Gander Center
Thu 07:46:38 PM 61.5167 -51.9000 239° Southwest 430 495 32,000  Level Gander Center
Thu 07:47:38 PM 61.4667 -52.0833 241° Southwest 430 495 32,000  Level Gander Center
Thu 07:48:00 PM 61.4470 -52.1649 241° Southwest  Level FlightAware Approximate
Thu 07:50:38 PM 61.2833 -52.7667 241° Southwest 430 495 32,000  Level Gander Center
Thu 07:51:38 PM 61.2333 -52.9500 241° Southwest 420 483 32,000  Level Gander Center
Thu 07:52:38 PM 61.1833 -53.1667 244° Southwest 420 483 32,000  Level Gander Center
Thu 07:53:38 PM 61.1333 -53.4000 246° West 420 483 32,000  Level Gander Center
Thu 07:54:38 PM 61.0667 -53.5833 233° Southwest 420 483 32,000  Level Gander Center
Thu 07:55:38 PM 61.0000 -53.8000 238° Southwest 420 483 32,000  Level Gander Center
Thu 07:56:38 PM 60.9500 -53.9833 241° Southwest 420 483 32,000  Level Gander Center
Thu 07:57:38 PM 60.8833 -54.2000 238° Southwest 420 483 32,000  Level Gander Center
Thu 07:58:38 PM 60.8333 -54.4167 245° Southwest 420 483 32,000  Level Gander Center
Thu 07:59:38 PM 60.7667 -54.6000 233° Southwest 420 483 32,000  Level Gander Center
Thu 08:00:38 PM 60.7167 -54.8167 245° Southwest 420 483 32,000  Level Gander Center
Thu 08:01:38 PM 60.6500 -55.0000 233° Southwest 420 483 32,000  Level Gander Center
Thu 08:02:38 PM 60.5833 -55.2167 238° Southwest 420 483 32,000  Level Gander Center
Thu 08:03:38 PM 60.5333 -55.4333 245° Southwest 420 483 32,000  Level Gander Center
Thu 08:04:38 PM 60.4667 -55.6167 234° Southwest 420 483 32,000  Level Gander Center
Thu 08:05:38 PM 60.4167 -55.8167 243° Southwest 420 483 32,000  Level Gander Center
Thu 08:06:38 PM 60.3500 -56.0333 238° Southwest 430 495 32,000  Level Gander Center
Thu 08:07:38 PM 60.2667 -56.2167 228° Southwest 430 495 32,000  Level Gander Center
Thu 08:08:38 PM 60.2167 -56.4333 245° Southwest 440 506 32,000  Level Gander Center
Thu 08:09:38 PM 60.1500 -56.6333 236° Southwest 430 495 32,000  Level Gander Center
Thu 08:10:38 PM 60.1000 -56.8500 245° Southwest 430 495 32,000  Level Gander Center
Thu 08:11:38 PM 60.0167 -57.0167 225° Southwest 430 495 32,000  Level Gander Center
Thu 08:12:38 PM 59.9500 -57.2333 238° Southwest 430 495 32,000  Level Gander Center
Thu 08:13:38 PM 59.9000 -57.4333 244° Southwest 430 495 32,000  Level Gander Center
Thu 08:14:38 PM 59.8333 -57.6333 237° Southwest 430 495 32,000  Level Gander Center
Thu 08:15:38 PM 59.7667 -57.8500 239° Southwest 440 506 32,000  Level Gander Center
Thu 08:16:38 PM 59.7000 -58.0167 232° Southwest 440 506 32,000  Level Gander Center
Thu 08:17:38 PM 59.6333 -58.2167 237° Southwest 440 506 32,000  Level Gander Center
Thu 08:18:38 PM 59.5500 -58.4167 231° Southwest 440 506 32,000  Level Gander Center
Thu 08:19:38 PM 59.5000 -58.6333 246° West 440 506 32,000  Level Gander Center
Thu 08:20:38 PM 59.4167 -58.8333 231° Southwest 440 506 32,000  Level Gander Center
Thu 08:21:38 PM 59.3500 -59.0333 237° Southwest 440 506 32,000  Level Gander Center
Thu 08:22:38 PM 59.2833 -59.2333 237° Southwest 440 506 32,000  Level Gander Center
Thu 08:23:38 PM 59.2000 -59.4000 226° Southwest 440 506 32,000  Level Gander Center
Thu 08:24:38 PM 59.1500 -59.6000 244° Southwest 440 506 32,000  Level Gander Center
Thu 08:25:17 PM 59.0833 -59.6833 213° Southwest 440 506 32,000  Level Montreal Center
Thu 08:26:17 PM 59.0167 -59.8833 237° Southwest 440 506 32,000  Level Montreal Center
Thu 08:27:17 PM 58.9500 -60.0833 237° Southwest 440 506 32,000  Level Montreal Center
Thu 08:28:17 PM 58.8833 -60.2833 237° Southwest 440 506 32,000  Level Montreal Center
Thu 08:29:17 PM 58.8333 -60.5000 246° West 440 506 32,000  Level Montreal Center
Thu 08:30:17 PM 58.7667 -60.7000 237° Southwest 440 506 32,000  Level Montreal Center
Thu 08:31:17 PM 58.7000 -60.9167 239° Southwest 450 518 32,000  Level Montreal Center
Thu 08:32:17 PM 58.6500 -61.1167 244° Southwest 440 506 32,000  Level Montreal Center
Thu 08:33:17 PM 58.5833 -61.3333 240° Southwest 450 518 32,000  Level Montreal Center
Thu 08:34:17 PM 58.5167 -61.5333 238° Southwest 450 518 32,000  Level Montreal Center
Thu 08:35:17 PM 58.4833 -61.7333 252° West 450 518 32,000  Level Montreal Center
Thu 08:36:17 PM 58.4167 -61.9333 238° Southwest 440 506 32,000  Level Montreal Center
Thu 08:37:17 PM 58.3333 -62.1500 234° Southwest 450 518 32,000  Level Montreal Center
Thu 08:38:17 PM 58.2667 -62.3667 240° Southwest 450 518 32,000  Level Montreal Center
Thu 08:39:17 PM 58.2000 -62.5667 238° Southwest 450 518 32,000  Level Montreal Center
Thu 08:40:17 PM 58.1333 -62.7833 240° Southwest 450 518 32,000  Level Montreal Center
Thu 08:41:17 PM 58.1000 -62.9500 249° West 450 518 32,000  Level Montreal Center
Thu 08:42:17 PM 58.0167 -63.1833 236° Southwest 450 518 32,000  Level Montreal Center
Thu 08:43:17 PM 57.9500 -63.3667 236° Southwest 450 518 32,000  Level Montreal Center
Thu 08:44:17 PM 57.8833 -63.5500 236° Southwest 450 518 32,000  Level Montreal Center
Thu 08:45:17 PM 57.8167 -63.7333 236° Southwest 440 506 32,000  Level Montreal Center
Thu 08:46:17 PM 57.7333 -63.9167 230° Southwest 450 518 32,000  Level Montreal Center
Thu 08:47:17 PM 57.6667 -64.1333 240° Southwest 450 518 32,000  Level Montreal Center
Thu 08:48:17 PM 57.6000 -64.3167 236° Southwest 450 518 32,000  Level Montreal Center
Thu 08:49:17 PM 57.5000 -64.5000 225° Southwest 450 518 32,000  Level Montreal Center
Thu 08:50:17 PM 57.4333 -64.6667 233° Southwest 450 518 32,000  Level Montreal Center
Thu 08:51:17 PM 57.3500 -64.8833 235° Southwest 450 518 32,000  Level Montreal Center
Thu 08:52:17 PM 57.2833 -65.0667 236° Southwest 450 518 32,000  Level Montreal Center
Thu 08:53:17 PM 57.2167 -65.2667 238° Southwest 450 518 32,000  Level Montreal Center
Thu 08:54:17 PM 57.1333 -65.4500 230° Southwest 450 518 32,000  Level Montreal Center
Thu 08:55:17 PM 57.0667 -65.6333 236° Southwest 450 518 32,000  Level Montreal Center
Thu 08:56:17 PM 56.9833 -65.8000 227° Southwest 460 529 32,000  Level Montreal Center
Thu 08:57:17 PM 56.9000 -66.0167 235° Southwest 450 518 32,000  Level Montreal Center
Thu 08:58:17 PM 56.8333 -66.1833 234° Southwest 460 529 32,000  Level Montreal Center
Thu 08:59:17 PM 56.7500 -66.4000 235° Southwest 470 541 32,000  Level Montreal Center
Thu 09:00:17 PM 56.6833 -66.5667 234° Southwest 470 541 32,000  Level Montreal Center
Thu 09:01:17 PM 56.5833 -66.7500 225° Southwest 460 529 32,000  Level Montreal Center
Thu 09:02:17 PM 56.5167 -66.9500 239° Southwest 470 541 32,000  Level Montreal Center
Thu 09:03:17 PM 56.4333 -67.1167 228° Southwest 460 529 32,000  Level Montreal Center
Thu 09:04:17 PM 56.3500 -67.3167 233° Southwest 470 541 32,000  Level Montreal Center
Thu 09:05:17 PM 56.2667 -67.5000 231° Southwest 470 541 32,000  Level Montreal Center
Thu 09:06:17 PM 56.1833 -67.7000 233° Southwest 470 541 32,000  Level Montreal Center
Thu 09:07:17 PM 56.1000 -67.8667 228° Southwest 470 541 32,000  Level Montreal Center
Thu 09:08:17 PM 56.0333 -68.0500 237° Southwest 450 518 32,000  Level Montreal Center
Thu 09:09:17 PM 55.9500 -68.2333 231° Southwest 470 541 32,000  Level Montreal Center
Thu 09:10:17 PM 55.8667 -68.4167 231° Southwest 470 541 32,000  Level Montreal Center
Thu 09:11:17 PM 55.7833 -68.5833 228° Southwest 470 541 32,000  Level Montreal Center
Thu 09:12:17 PM 55.6833 -68.7833 228° Southwest 470 541 32,000  Level Montreal Center
Thu 09:13:17 PM 55.6167 -68.9500 235° Southwest 470 541 32,000  Level Montreal Center
Thu 09:14:17 PM 55.5167 -69.1500 229° Southwest 470 541 32,000  Level Montreal Center
Thu 09:15:17 PM 55.4500 -69.3000 232° Southwest 470 541 32,000  Level Montreal Center
Thu 09:16:17 PM 55.3500 -69.4667 223° Southwest 470 541 32,000  Level Montreal Center
Thu 09:17:17 PM 55.2833 -69.6667 240° Southwest 470 541 32,000  Level Montreal Center
Thu 09:18:17 PM 55.1833 -69.8500 226° Southwest 470 541 32,000  Level Montreal Center
Thu 09:19:17 PM 55.1000 -70.0500 234° Southwest 470 541 32,000  Level Montreal Center
Thu 09:20:17 PM 55.0167 -70.2000 226° Southwest 470 541 32,000  Level Montreal Center
Thu 09:21:17 PM 54.9333 -70.4000 234° Southwest 470 541 32,000  Level Montreal Center
Thu 09:22:17 PM 54.8500 -70.5500 226° Southwest 450 518 32,000  Level Montreal Center
Thu 09:23:17 PM 54.7500 -70.7000 221° Southwest 470 541 32,000  Level Montreal Center
Thu 09:24:17 PM 54.6833 -70.8667 235° Southwest 470 541 32,000  Level Montreal Center
Thu 09:25:16 PM 54.5833 -71.0500 227° Southwest 470 541 32,000  Level Montreal Center
Thu 09:26:16 PM 54.5167 -71.2000 233° Southwest 470 541 32,000  Level Montreal Center
Thu 09:27:16 PM 54.4167 -71.3833 227° Southwest 470 541 32,000  Level Montreal Center
Thu 09:28:16 PM 54.3333 -71.5500 229° Southwest 460 529 32,000  Level Montreal Center
Thu 09:29:16 PM 54.2333 -71.7333 227° Southwest 460 529 32,000  Level Montreal Center
Thu 09:30:16 PM 54.1667 -71.8833 233° Southwest 460 529 32,000  Level Montreal Center
Thu 09:31:16 PM 54.0667 -72.0667 227° Southwest 460 529 32,000  Level Montreal Center
Thu 09:32:16 PM 53.9833 -72.2167 227° Southwest 460 529 32,000  Level Montreal Center
Thu 09:33:16 PM 53.9000 -72.3667 227° Southwest 460 529 32,000  Level Montreal Center
Thu 09:34:16 PM 53.8167 -72.5333 230° Southwest 460 529 32,000  Level Montreal Center
Thu 09:35:16 PM 53.7333 -72.6833 227° Southwest 460 529 32,000  Level Montreal Center
Thu 09:36:16 PM 53.6333 -72.8333 222° Southwest 460 529 32,000  Level Montreal Center
Thu 09:37:16 PM 53.5500 -73.0167 233° Southwest 460 529 32,000  Level Montreal Center
Thu 09:38:16 PM 53.4667 -73.1667 227° Southwest 460 529 32,000  Level Montreal Center
Thu 09:39:16 PM 53.3833 -73.3167 227° Southwest 460 529 32,000  Level Montreal Center
Thu 09:40:16 PM 53.3000 -73.4833 230° Southwest 460 529 32,000  Level Montreal Center
Thu 09:41:16 PM 53.2000 -73.6333 222° Southwest 460 529 32,000  Level Montreal Center
Thu 09:42:16 PM 53.1000 -73.8000 225° Southwest 460 529 32,000  Level Montreal Center
Thu 09:43:16 PM 53.0167 -73.9500 227° Southwest 450 518 32,000  Level Montreal Center
Thu 09:44:16 PM 52.9333 -74.1000 227° Southwest 450 518 32,000  Level Montreal Center
Thu 09:45:16 PM 52.8500 -74.2667 230° Southwest 450 518 32,000  Level Montreal Center
Thu 09:46:16 PM 52.7500 -74.4000 219° Southwest 450 518 32,000  Level Montreal Center
Thu 09:47:16 PM 52.6833 -74.5500 234° Southwest 450 518 32,000  Level Montreal Center
Thu 09:48:16 PM 52.6000 -74.7167 231° Southwest 450 518 32,000  Level Montreal Center
Thu 09:49:16 PM 52.5167 -74.8500 224° Southwest 450 518 32,000  Level Montreal Center
Thu 09:50:16 PM 52.4333 -75.0000 228° Southwest 440 506 32,000  Level Montreal Center
Thu 09:51:16 PM 52.3500 -75.1333 224° Southwest 440 506 32,000  Level Montreal Center
Thu 09:52:16 PM 52.2667 -75.3000 231° Southwest 430 495 32,000  Level Montreal Center
Thu 09:53:16 PM 52.1833 -75.4500 228° Southwest 430 495 32,000  Level Montreal Center
Thu 09:54:16 PM 52.1000 -75.5833 225° Southwest 440 506 32,000  Level Montreal Center
Thu 09:55:16 PM 52.0000 -75.7167 219° Southwest 450 518 32,000  Level Montreal Center
Thu 09:56:16 PM 51.9167 -75.8833 231° Southwest 440 506 32,000  Level Montreal Center
Thu 09:57:16 PM 51.8333 -76.0167 225° Southwest 440 506 32,000  Level Montreal Center
Thu 09:58:16 PM 51.7333 -76.1500 220° Southwest 440 506 32,000  Level Montreal Center
Thu 09:59:16 PM 51.6500 -76.3167 231° Southwest 440 506 32,000  Level Montreal Center
Thu 10:00:16 PM 51.5667 -76.4500 225° Southwest 430 495 32,000  Level Montreal Center
Thu 10:01:16 PM 51.4833 -76.5833 225° Southwest 430 495 32,000  Level Montreal Center
Thu 10:02:16 PM 51.4000 -76.7167 225° Southwest 430 495 32,000  Level Montreal Center
Thu 10:03:16 PM 51.3167 -76.8500 225° Southwest 430 495 32,000  Level Montreal Center
Thu 10:04:16 PM 51.2333 -76.9833 225° Southwest 430 495 32,000  Level Montreal Center
Thu 10:05:16 PM 51.1500 -77.1500 231° Southwest 430 495 32,000  Level Montreal Center
Thu 10:06:16 PM 51.0667 -77.2833 225° Southwest 440 506 32,000  Level Montreal Center
Thu 10:07:16 PM 50.9833 -77.4000 221° Southwest 440 506 32,000  Level Montreal Center
Thu 10:08:16 PM 50.8667 -77.5333 216° Southwest 450 518 32,000  Level Montreal Center
Thu 10:09:16 PM 50.7833 -77.6667 225° Southwest 440 506 32,000  Level Montreal Center
Thu 10:10:16 PM 50.7000 -77.8167 229° Southwest 450 518 32,000  Level Montreal Center
Thu 10:11:16 PM 50.6167 -77.9500 225° Southwest 440 506 32,000  Level Montreal Center
Thu 10:12:16 PM 50.5333 -78.1167 232° Southwest 440 506 32,000  Level Montreal Center
Thu 10:13:16 PM 50.4333 -78.2167 213° Southwest 420 483 32,000  Level Montreal Center
Thu 10:14:16 PM 50.3500 -78.3333 222° Southwest 420 483 32,000  Level Montreal Center
Thu 10:15:16 PM 50.2833 -78.4667 232° Southwest 420 483 32,000  Level Montreal Center
Thu 10:16:16 PM 50.1833 -78.6167 224° Southwest 420 483 32,000  Level Montreal Center
Thu 10:17:16 PM 50.1167 -78.7167 224° Southwest 420 483 32,000  Level Montreal Center
Thu 10:18:16 PM 50.0167 -78.8667 224° Southwest 420 483 32,000  Level Montreal Center
Thu 10:19:16 PM 49.9333 -78.9667 218° Southwest 420 483 32,000  Level Montreal Center
Thu 10:20:16 PM 49.8500 -79.1167 229° Southwest 420 483 32,000  Level Montreal Center
Thu 10:21:16 PM 49.7667 -79.2167 218° Southwest 420 483 32,000  Level Montreal Center
Thu 10:22:16 PM 49.6667 -79.3500 221° Southwest 420 483 32,000  Level Montreal Center
Thu 10:23:16 PM 49.5833 -79.4667 222° Southwest 410 472 32,000  Level Montreal Center
Thu 10:24:16 PM 49.5167 -79.6000 232° Southwest 410 472 32,000  Level Montreal Center
Thu 10:25:16 PM 49.4333 -79.7167 222° Southwest 420 483 32,000  Level Montreal Center
Thu 10:26:16 PM 49.3333 -79.8333 217° Southwest 410 472 32,000  Level Montreal Center
Thu 10:27:16 PM 49.2500 -79.9667 226° Southwest 420 483 32,000  Level Montreal Center
Thu 10:28:16 PM 49.1667 -80.0833 222° Southwest 410 472 32,000  Level Montreal Center
Thu 10:29:16 PM 49.0667 -80.2333 225° Southwest 410 472 32,000  Level Montreal Center
Thu 10:30:16 PM 49.0000 -80.3167 219° Southwest 420 483 32,000  Level Montreal Center
Thu 10:31:16 PM 48.9167 -80.4500 226° Southwest 420 483 32,000  Level Montreal Center
Thu 10:32:16 PM 48.8167 -80.5833 221° Southwest 410 472 32,000  Level Montreal Center
Thu 10:33:16 PM 48.7333 -80.6833 218° Southwest 420 483 32,000  Level Montreal Center
Thu 10:34:16 PM 48.6500 -80.8000 223° Southwest 420 483 32,000  Level Montreal Center
Thu 10:35:16 PM 48.5500 -80.9167 218° Southwest 420 483 32,000  Level Montreal Center
Thu 10:35:57 PM 48.4833 -80.9833 214° Southwest 430 495 32,000  Level Toronto Center
Thu 10:36:57 PM 48.4000 -81.0833 219° Southwest 420 483 32,000  Level Toronto Center
Thu 10:37:57 PM 48.3167 -81.2167 227° Southwest 420 483 32,000  Level Toronto Center
Thu 10:38:57 PM 48.2333 -81.3333 223° Southwest 420 483 32,000  Level Toronto Center
Thu 10:39:57 PM 48.1333 -81.4500 218° Southwest 420 483 32,000  Level Toronto Center
Thu 10:40:57 PM 48.0667 -81.5500 225° Southwest 410 472 32,000  Level Toronto Center
Thu 10:41:57 PM 47.9667 -81.6667 218° Southwest 420 483 32,000  Level Toronto Center
Thu 10:42:57 PM 47.8833 -81.7667 219° Southwest 400 460 32,000  Level Toronto Center
Thu 10:43:57 PM 47.8000 -81.8667 219° Southwest 400 460 32,000  Level Toronto Center
Thu 10:44:57 PM 47.7167 -81.9833 223° Southwest 410 472 32,000  Level Toronto Center
Thu 10:45:57 PM 47.6167 -82.0833 214° Southwest 400 460 32,000  Level Toronto Center
Thu 10:46:57 PM 47.5333 -82.2000 223° Southwest 400 460 32,000  Level Toronto Center
Thu 10:47:57 PM 47.4500 -82.3000 219° Southwest 400 460 32,000  Level Toronto Center
Thu 10:48:57 PM 47.3667 -82.4167 223° Southwest 400 460 32,000  Level Toronto Center
Thu 10:49:57 PM 47.2833 -82.5000 214° Southwest 400 460 32,000  Level Toronto Center
Thu 10:50:57 PM 47.2000 -82.6167 224° Southwest 400 460 32,000  Level Toronto Center
Thu 10:51:57 PM 47.1167 -82.7167 219° Southwest 400 460 32,000  Level Toronto Center
Thu 10:52:57 PM 47.0167 -82.8333 219° Southwest 400 460 32,000  Level Toronto Center
Thu 10:53:57 PM 46.9500 -82.9333 226° Southwest 400 460 32,000  Level Toronto Center
Thu 10:54:57 PM 46.8500 -83.0500 219° Southwest 400 460 32,000  Level Toronto Center
Thu 10:55:57 PM 46.7833 -83.1333 221° Southwest 400 460 32,000  Level Toronto Center
Thu 10:56:57 PM 46.7000 -83.2333 219° Southwest 400 460 32,000  Level Toronto Center
Thu 10:57:57 PM 46.6000 -83.3500 219° Southwest 390 449 32,000  Level Toronto Center
Thu 10:58:57 PM 46.5167 -83.4333 215° Southwest 380 437 32,000  Level Toronto Center
Thu 10:59:57 PM 46.4500 -83.5333 226° Southwest 360 414 32,000  Level Toronto Center
Thu 11:00:57 PM 46.3667 -83.6167 215° Southwest 370 426 32,000  Level Toronto Center
Thu 11:01:57 PM 46.2833 -83.7167 220° Southwest 380 437 32,000  Level Toronto Center
Thu 11:02:57 PM 46.2000 -83.8000 215° Southwest 380 437 32,000  Level Toronto Center
Thu 11:03:57 PM 46.1167 -83.9167 224° Southwest 380 437 32,000  Level Toronto Center
Thu 11:04:57 PM 46.0333 -84.0000 215° Southwest 380 437 32,000  Level Toronto Center
Thu 11:05:57 PM 45.9500 -84.1000 220° Southwest 370 426 32,000  Level Toronto Center
Thu 11:06:57 PM 45.8833 -84.1833 221° Southwest 370 426 32,000  Level Toronto Center
Thu 11:07:57 PM 45.8000 -84.2667 215° Southwest 360 414 32,000  Level Toronto Center
Thu 11:08:57 PM 45.7167 -84.3667 220° Southwest 360 414 32,000  Level Toronto Center
Thu 11:10:14 PM 45.6447 -84.4656 224° Southwest 352 405 32,000  Level Minneapolis Center
Thu 11:11:15 PM 45.5686 -84.5519 218° Southwest 350 403 32,000  Level Minneapolis Center
Thu 11:12:16 PM 45.4925 -84.6378 218° Southwest 349 402 32,000  Level Minneapolis Center
Thu 11:13:17 PM 45.4017 -84.7400 218° Southwest 347 399 32,000  Level Minneapolis Center
Thu 11:14:18 PM 45.3261 -84.8250 218° Southwest 347 399 32,000  Level Minneapolis Center
Thu 11:15:19 PM 45.2503 -84.9094 218° Southwest 347 399 32,000  Level Minneapolis Center
Thu 11:16:20 PM 45.1742 -84.9942 218° Southwest 348 400 32,000  Level Minneapolis Center
Thu 11:17:21 PM 45.0972 -85.0794 218° Southwest 352 405 32,000  Level Minneapolis Center
Thu 11:18:22 PM 45.0194 -85.1653 218° Southwest 356 410 32,000  Level Minneapolis Center
Thu 11:19:23 PM 44.9408 -85.2519 218° Southwest 358 412 32,000  Level Minneapolis Center
Thu 11:20:24 PM 44.8617 -85.3386 218° Southwest 361 415 32,000  Level Minneapolis Center
Thu 11:21:25 PM 44.7819 -85.4258 218° Southwest 362 417 32,000  Level Minneapolis Center
Thu 11:22:26 PM 44.7019 -85.5131 218° Southwest 363 418 32,000  Level Minneapolis Center
Thu 11:23:27 PM 44.6092 -85.5661 202° Southwest 364 419 32,000  Level Minneapolis Center
Thu 11:24:28 PM 44.5089 -85.5917 190° South 364 419 32,000  Level Minneapolis Center
Thu 11:25:29 PM 44.4092 -85.6169 190° South 361 415 32,000  Level Minneapolis Center
Thu 11:26:30 PM 44.3108 -85.6428 191° South 358 412 32,000  Level Minneapolis Center
Thu 11:27:31 PM 44.2136 -85.6678 190° South 355 409 32,000  Level Minneapolis Center
Thu 11:28:32 PM 44.1161 -85.6928 190° South 356 410 32,000  Level Minneapolis Center
Thu 11:33:35 PM 43.6032 -85.8232 190° South 356 410 32,000  Level FlightAware ADS-B (KBHM)
Thu 11:36:46 PM 43.2958 -85.9003 190° South 354 407 32,000  Level FlightAware ADS-B (KBHM)
Thu 11:37:55 PM 43.1889 -85.9270 190° South 352 405 32,000  Level FlightAware ADS-B (KBHM)
Thu 11:38:50 PM 43.0971 -85.9498 190° South 350 403 32,000  Level FlightAware ADS-B (KBHM)
Thu 11:39:26 PM 43.0395 -85.9643 190° South 348 400 32,000  Level FlightAware ADS-B (KBHM)
Thu 11:40:36 PM 42.9306 -85.9915 190° South 344 396 32,000  Level FlightAware ADS-B (KBHM)
Thu 11:41:35 PM 42.8386 -86.0144 190° South 342 394 32,000  Level FlightAware ADS-B (KBHM)
Thu 11:42:47 PM 42.7266 -86.0412 190° South 339 390 32,000  Level FlightAware ADS-B (KBHM)
Thu 11:43:32 PM 42.6571 -86.0580 190° South 337 388 32,000  Level FlightAware ADS-B (KBHM)
Thu 11:44:13 PM 42.5961 -86.0730 190° South 336 387 32,000  Level FlightAware ADS-B (KBHM)
Thu 11:44:57 PM 42.5278 -86.0896 190° South 336 387 32,000  Level FlightAware ADS-B (KBHM)
Thu 11:45:27 PM 42.4842 -86.1002 190° South 334 384 32,000  Level FlightAware ADS-B (KBHM)
Thu 11:46:01 PM 42.4333 -86.1137 191° South 330 380 32,000  Level FlightAware ADS-B (KBHM)
Thu 11:46:39 PM 42.3739 -86.1333 194° South 327 376 32,000  Level FlightAware ADS-B (KBHM)
Thu 11:47:12 PM 42.3276 -86.1478 193° South 323 372 32,000  Level FlightAware ADS-B (KBHM)
Thu 11:47:42 PM 42.2845 -86.1610 193° South 322 371 32,000  Level FlightAware ADS-B (KBHM)
Thu 11:48:14 PM 42.2360 -86.1757 193° South 320 368 32,000  Level FlightAware ADS-B (KBHM)
Thu 11:48:45 PM 42.1928 -86.1889 193° South 319 367 32,000  Level FlightAware ADS-B (KBHM)
Thu 11:49:16 PM 42.1474 -86.2028 193° South 317 365 32,000  Level FlightAware ADS-B (KBHM)
Thu 11:50:19 PM 42.0618 -86.2290 193° South 315 362 32,000  Level FlightAware ADS-B (KBHM)
Thu 11:50:50 PM 42.0129 -86.2439 193° South 314 361 32,000  Level FlightAware ADS-B (KBHM)
Thu 11:51:20 PM 41.9705 -86.2569 193° South 313 360 32,000  Level FlightAware ADS-B (KBHM)
Thu 11:51:51 PM 41.9271 -86.2701 193° South 314 361 32,000  Level FlightAware ADS-B (KBHM)
Thu 11:52:22 PM 41.8838 -86.2833 193° South 315 362 32,000  Level FlightAware ADS-B (KBHM)
Thu 11:52:52 PM 41.8415 -86.2962 193° South 315 362 32,000  Level FlightAware ADS-B (KBHM)
Thu 11:53:22 PM 41.7987 -86.3092 193° South 315 362 32,000  Level FlightAware ADS-B (KBHM)
Thu 11:53:43 PM 41.7707 -86.3150 189° South 323 372 32,000  Level FlightAware ADS-B (KBHM)
Thu 11:54:22 PM 41.7091 -86.3047 173° South 334 384 32,000  Level FlightAware ADS-B (KBHM)
Thu 11:54:52 PM 41.6628 -86.2934 170° South 335 386 32,000  Level FlightAware ADS-B (KBHM)
Thu 11:55:32 PM 41.6050 -86.2791 170° South 335 386 32,000  Level FlightAware ADS-B (KBHM)
Thu 11:56:02 PM 41.5566 -86.2676 170° South 335 386 32,000  Level FlightAware ADS-B (KBHM)
Thu 11:56:32 PM 41.5103 -86.2566 170° South 335 386 32,000  Level FlightAware ADS-B (KBHM)
Thu 11:57:02 PM 41.4648 -86.2459 170° South 334 384 32,000 -179 Level FlightAware ADS-B (KBHM)
Thu 11:57:39 PM 41.4123 -86.2335 170° South 334 384 31,800 -898 Descending FlightAware ADS-B (KBHM)
Thu 11:59:09 PM 41.2749 -86.2012 170° South 341 392 30,100 -1,220 Descending FlightAware ADS-B (KBHM)
Thu 11:59:42 PM 41.2205 -86.1884 170° South 345 397 29,300 -1,714 Descending FlightAware ADS-B (KBHM)
Fri 12:00:12 AM 41.1818 -86.1792 170° South 352 405 28,300 -1,833 Descending FlightAware ADS-B (KBHM)
Fri 12:00:54 AM 41.1028 -86.1608 170° South 364 419 27,100 -1,211 Descending FlightAware ADS-B (KBHM)
Fri 12:02:06 AM 40.9922 -86.1344 170° South 365 420 26,000 -496 Descending Indianapolis Center
Fri 12:03:07 AM 40.8889 -86.1092 170° South 374 430 26,000  Level Indianapolis Center
Fri 12:04:08 AM 40.7925 -86.0886 171° South 360 414 26,000  Level Indianapolis Center
Fri 12:05:09 AM 40.7053 -86.0681 170° South 330 380 26,000  Level Indianapolis Center
Fri 12:06:10 AM 40.6197 -86.0481 170° South 318 366 26,000  Level Indianapolis Center
Fri 12:07:11 AM 40.5311 -86.0289 171° South 318 366 26,000  Level Indianapolis Center
Fri 12:08:12 AM 40.4419 -86.0083 170° South 323 372 26,000  Level Indianapolis Center
Fri 12:09:13 AM 40.3347 -85.9833 170° South 324 373 26,000  Level Indianapolis Center
Fri 12:10:14 AM 40.2456 -85.9628 170° South 324 373 26,000  Level Indianapolis Center
Fri 12:11:16 AM 40.1617 -85.9792 188° South 310 357 26,000  Level Indianapolis Center
Fri 12:12:17 AM 40.0772 -85.9992 190° South 310 357 26,000  Level Indianapolis Center
Fri 12:13:18 AM 39.9936 -86.0183 190° South 310 357 26,000  Level Indianapolis Center
Fri 12:14:19 AM 39.9092 -86.0375 190° South 309 356 26,000  Level Indianapolis Center
Fri 12:15:20 AM 39.8247 -86.0578 190° South 309 356 26,000  Level Indianapolis Center
Fri 12:16:21 AM 39.7394 -86.0769 190° South 309 356 26,000  Level Indianapolis Center
Fri 12:17:22 AM 39.6533 -86.0953 189° South 309 356 26,000  Level Indianapolis Center
Fri 12:18:22 AM 39.5678 -86.1142 190° South 309 356 26,000  Level Indianapolis Center
Fri 12:19:23 AM 39.4831 -86.1331 190° South 309 356 26,000  Level Indianapolis Center
Fri 12:20:24 AM 39.3989 -86.1517 190° South 309 356 26,000 -443 Level Indianapolis Center
Fri 12:21:25 AM 39.3150 -86.1706 190° South 308 354 25,100 -1,131 Descending Indianapolis Center
Fri 12:22:26 AM 39.2306 -86.1889 190° South 308 354 23,700 -1,721 Descending Indianapolis Center
Fri 12:23:27 AM 39.1481 -86.2064 189° South 306 352 21,600 -2,213 Descending Indianapolis Center
Fri 12:24:28 AM 39.0647 -86.2258 190° South 306 352 19,200 -2,607 Descending Indianapolis Center
Fri 12:25:29 AM 38.9647 -86.2467 189° South 306 352 16,300 -2,508 Descending Indianapolis Center
Fri 12:26:30 AM 38.8858 -86.2647 190° South 297 342 14,100 -2,115 Descending Indianapolis Center
Fri 12:27:31 AM 38.8067 -86.2822 190° South 287 330 12,000 -1,721 Descending Indianapolis Center
Fri 12:28:32 AM 38.7272 -86.2808 179° South 290 334 10,600 -1,033 Descending Indianapolis Center
Fri 12:29:33 AM 38.6611 -86.2131 141° Southeast 307 353 9,900 -393 Descending Indianapolis Center
Fri 12:30:34 AM 38.6036 -86.1475 138° Southeast 285 328 9,800 -645 Descending Indianapolis Center
Fri 12:31:34 AM 38.5481 -86.0844 138° Southeast 272 313 8,600 -1,289 Descending Indianapolis Center
Fri 12:32:35 AM 38.4911 -86.0189 138° Southeast 272 313 7,200 -1,033 Descending Indianapolis Center
Fri 12:33:36 AM 38.4339 -85.9531 138° Southeast 272 313 6,500 -590 Descending Indianapolis Center
Fri 12:34:37 AM 38.3758 -85.8872 138° Southeast 274 315 6,000 -246 Descending Indianapolis Center
Fri 12:35:38 AM 38.3164 -85.8194 138° Southeast 280 322 6,000  Level Indianapolis Center
Fri 12:36:38 AM 38.2583 -85.7525 138° Southeast 280 322 6,000 -198 Level Indianapolis Center
Fri 12:37:39 AM 38.1981 -85.6856 139° Southeast 280 322 5,600 -393 Descending Indianapolis Center
Fri 12:39:00 AM 38.1667 -85.7333 28° Northeast  Level FlightAware Approximate
Fri 12:46:00 AM 38.1741 -85.7365 28° Northeast  Level Estimated
Fri 12:47:00 AM 38.1741 -85.7365 28° Northeast  Level Estimated
Fri 12:48:00 AM 38.1741 -85.7365 28° Northeast  Level Estimated
Fri 12:49:00 AM 38.1741 -85.7365 28° Northeast  Level Estimated
Fri 12:50:00 AM 38.1741 -85.7365 28° Northeast  Level Estimated
Fri 12:51:00 AM 38.1741 -85.7365 28° Northeast  Level Estimated
Fri 12:52:00 AM 38.1741 -85.7365 28° Northeast  Level Estimated
Fri 12:53:00 AM 38.1741 -85.7365 28° Northeast  Level Estimated
Fri 12:54:00 AM 38.1741 -85.7365 28° Northeast  Level Estimated
Fri 12:55:00 AM 38.1741 -85.7365 28° Northeast  Level Estimated
Fri 12:56:00 AM 38.1741 -85.7365 28° Northeast  Level Estimated
Fri 12:57:00 AM 38.1741 -85.7365 28° Northeast  Level Estimated

Login

Don't have an account? Register now (free) for customized features, flight alerts, and more!